sensor_id;sensor_type;location;lat;lon;timestamp;noise_LAeq;noise_LA_min;noise_LA_max;noise_LA01;noise_LA95
58251;Laerm;51449;51.676;5.812;2023-04-03T00:01:00;34.62;28.63;55.27;;
58251;Laerm;51449;51.676;5.812;2023-04-03T00:03:24;58.61;28.52;73.71;;
58251;Laerm;51449;51.676;5.812;2023-04-03T00:05:49;46.74;29.77;62.68;;
58251;Laerm;51449;51.676;5.812;2023-04-03T00:08:13;49.41;28.73;66.22;;
58251;Laerm;51449;51.676;5.812;2023-04-03T00:10:37;31.42;27.92;51.94;;
58251;Laerm;51449;51.676;5.812;2023-04-03T00:13:06;33.45;28.05;50.41;;
58251;Laerm;51449;51.676;5.812;2023-04-03T00:15:30;37.44;32.08;51.38;;
58251;Laerm;51449;51.676;5.812;2023-04-03T00:17:55;40.05;34.08;52.26;;
58251;Laerm;51449;51.676;5.812;2023-04-03T00:20:20;60.34;37.40;73.52;;
58251;Laerm;51449;51.676;5.812;2023-04-03T00:22:45;36.04;30.86;52.74;;
58251;Laerm;51449;51.676;5.812;2023-04-03T00:25:09;34.27;30.64;52.80;;
58251;Laerm;51449;51.676;5.812;2023-04-03T00:27:32;56.45;30.43;74.22;;
58251;Laerm;51449;51.676;5.812;2023-04-03T00:29:55;48.09;30.09;66.53;;
58251;Laerm;51449;51.676;5.812;2023-04-03T00:32:19;50.08;30.77;68.18;;
58251;Laerm;51449;51.676;5.812;2023-04-03T00:34:43;33.30;30.34;50.37;;
58251;Laerm;51449;51.676;5.812;2023-04-03T00:37:07;51.05;29.08;69.07;;
58251;Laerm;51449;51.676;5.812;2023-04-03T00:39:35;34.15;29.54;48.47;;
58251;Laerm;51449;51.676;5.812;2023-04-03T00:41:58;53.25;29.31;68.68;;
58251;Laerm;51449;51.676;5.812;2023-04-03T00:46:55;52.23;30.31;68.69;;
58251;Laerm;51449;51.676;5.812;2023-04-03T00:49:18;33.95;30.42;50.71;;
58251;Laerm;51449;51.676;5.812;2023-04-03T00:51:40;55.59;31.26;73.41;;
58251;Laerm;51449;51.676;5.812;2023-04-03T00:54:07;32.43;29.35;48.71;;
58251;Laerm;51449;51.676;5.812;2023-04-03T00:56:31;32.52;28.95;50.86;;
58251;Laerm;51449;51.676;5.812;2023-04-03T00:59:15;36.40;29.98;50.80;;
58251;Laerm;51449;51.676;5.812;2023-04-03T01:01:41;58.96;29.92;73.21;;
58251;Laerm;51449;51.676;5.812;2023-04-03T01:04:06;34.50;29.50;48.77;;
58251;Laerm;51449;51.676;5.812;2023-04-03T01:06:47;56.23;30.00;71.73;;
58251;Laerm;51449;51.676;5.812;2023-04-03T01:09:10;58.76;30.05;74.32;;
58251;Laerm;51449;51.676;5.812;2023-04-03T01:11:33;39.51;30.86;53.55;;
58251;Laerm;51449;51.676;5.812;2023-04-03T01:13:56;33.07;29.21;49.88;;
58251;Laerm;51449;51.676;5.812;2023-04-03T01:16:20;58.46;30.29;73.55;;
58251;Laerm;51449;51.676;5.812;2023-04-03T01:18:44;36.78;29.41;48.52;;
58251;Laerm;51449;51.676;5.812;2023-04-03T01:21:24;45.51;29.79;61.72;;
58251;Laerm;51449;51.676;5.812;2023-04-03T01:24:02;59.83;30.22;77.45;;
58251;Laerm;51449;51.676;5.812;2023-04-03T01:26:29;48.33;29.92;65.65;;
58251;Laerm;51449;51.676;5.812;2023-04-03T01:28:54;34.10;29.46;51.94;;
58251;Laerm;51449;51.676;5.812;2023-04-03T01:31:47;59.01;30.82;74.16;;
58251;Laerm;51449;51.676;5.812;2023-04-03T01:34:10;56.42;29.56;77.69;;
58251;Laerm;51449;51.676;5.812;2023-04-03T01:36:32;37.04;30.98;54.22;;
58251;Laerm;51449;51.676;5.812;2023-04-03T01:38:58;54.16;29.40;70.35;;
58251;Laerm;51449;51.676;5.812;2023-04-03T01:41:22;56.58;29.29;72.24;;
58251;Laerm;51449;51.676;5.812;2023-04-03T01:43:49;56.04;31.43;71.42;;
58251;Laerm;51449;51.676;5.812;2023-04-03T01:46:15;58.12;32.95;71.74;;
58251;Laerm;51449;51.676;5.812;2023-04-03T01:48:38;58.08;34.50;74.24;;
58251;Laerm;51449;51.676;5.812;2023-04-03T01:51:01;34.28;31.29;54.53;;
58251;Laerm;51449;51.676;5.812;2023-04-03T01:53:24;35.55;31.03;53.19;;
58251;Laerm;51449;51.676;5.812;2023-04-03T01:55:48;51.40;30.54;68.64;;
58251;Laerm;51449;51.676;5.812;2023-04-03T01:58:11;35.84;30.86;53.63;;
58251;Laerm;51449;51.676;5.812;2023-04-03T02:00:34;58.97;33.37;73.53;;
58251;Laerm;51449;51.676;5.812;2023-04-03T02:02:57;58.52;32.48;73.70;;
58251;Laerm;51449;51.676;5.812;2023-04-03T02:05:20;51.01;30.72;69.17;;
58251;Laerm;51449;51.676;5.812;2023-04-03T02:07:43;33.78;30.39;53.87;;
58251;Laerm;51449;51.676;5.812;2023-04-03T02:10:06;58.17;32.84;73.93;;
58251;Laerm;51449;51.676;5.812;2023-04-03T02:12:29;57.45;32.05;70.39;;
58251;Laerm;51449;51.676;5.812;2023-04-03T02:14:53;54.28;30.52;70.37;;
58251;Laerm;51449;51.676;5.812;2023-04-03T02:17:16;47.16;30.49;63.95;;
58251;Laerm;51449;51.676;5.812;2023-04-03T02:19:39;57.83;34.45;72.62;;
58251;Laerm;51449;51.676;5.812;2023-04-03T02:22:04;56.38;32.54;72.63;;
58251;Laerm;51449;51.676;5.812;2023-04-03T02:24:27;60.26;32.82;75.64;;
58251;Laerm;51449;51.676;5.812;2023-04-03T02:26:49;54.76;31.03;69.63;;
58251;Laerm;51449;51.676;5.812;2023-04-03T02:29:14;55.55;31.02;71.16;;
58251;Laerm;51449;51.676;5.812;2023-04-03T02:31:36;61.40;34.54;74.66;;
58251;Laerm;51449;51.676;5.812;2023-04-03T02:34:00;46.61;31.69;64.16;;
58251;Laerm;51449;51.676;5.812;2023-04-03T02:36:23;52.09;30.59;66.87;;
58251;Laerm;51449;51.676;5.812;2023-04-03T02:38:50;57.23;32.43;72.62;;
58251;Laerm;51449;51.676;5.812;2023-04-03T02:41:13;33.72;29.65;45.99;;
58251;Laerm;51449;51.676;5.812;2023-04-03T02:43:36;50.64;30.30;67.21;;
58251;Laerm;51449;51.676;5.812;2023-04-03T02:46:00;53.98;29.84;72.19;;
58251;Laerm;51449;51.676;5.812;2023-04-03T02:48:24;51.72;30.68;70.68;;
58251;Laerm;51449;51.676;5.812;2023-04-03T02:50:49;55.02;31.57;71.52;;
58251;Laerm;51449;51.676;5.812;2023-04-03T02:53:12;57.02;34.52;73.07;;
58251;Laerm;51449;51.676;5.812;2023-04-03T02:55:34;50.76;30.35;65.62;;
58251;Laerm;51449;51.676;5.812;2023-04-03T02:57:57;56.83;31.00;70.49;;
58251;Laerm;51449;51.676;5.812;2023-04-03T03:00:23;56.33;34.50;72.40;;
58251;Laerm;51449;51.676;5.812;2023-04-03T03:02:45;59.88;31.95;73.84;;
58251;Laerm;51449;51.676;5.812;2023-04-03T03:05:09;53.28;30.88;68.12;;
58251;Laerm;51449;51.676;5.812;2023-04-03T03:07:32;61.67;33.22;75.95;;
58251;Laerm;51449;51.676;5.812;2023-04-03T03:09:55;58.73;33.93;73.47;;
58251;Laerm;51449;51.676;5.812;2023-04-03T03:12:18;59.64;36.15;73.01;;
58251;Laerm;51449;51.676;5.812;2023-04-03T03:14:44;61.31;33.66;83.18;;
58251;Laerm;51449;51.676;5.812;2023-04-03T03:17:07;61.14;38.35;74.68;;
58251;Laerm;51449;51.676;5.812;2023-04-03T03:19:30;57.06;35.59;71.04;;
58251;Laerm;51449;51.676;5.812;2023-04-03T03:21:52;62.36;39.99;75.29;;
58251;Laerm;51449;51.676;5.812;2023-04-03T03:24:17;57.40;37.26;69.02;;
58251;Laerm;51449;51.676;5.812;2023-04-03T03:26:39;59.08;33.19;73.95;;
58251;Laerm;51449;51.676;5.812;2023-04-03T03:29:02;63.05;36.93;77.58;;
58251;Laerm;51449;51.676;5.812;2023-04-03T03:31:28;64.64;39.37;80.76;;
58251;Laerm;51449;51.676;5.812;2023-04-03T03:33:52;63.73;36.09;77.46;;
58251;Laerm;51449;51.676;5.812;2023-04-03T03:36:17;63.33;38.18;75.86;;
58251;Laerm;51449;51.676;5.812;2023-04-03T03:38:39;63.74;38.77;77.83;;
58251;Laerm;51449;51.676;5.812;2023-04-03T03:41:04;62.60;37.86;75.53;;
58251;Laerm;51449;51.676;5.812;2023-04-03T03:43:29;57.76;36.95;73.74;;
58251;Laerm;51449;51.676;5.812;2023-04-03T03:45:53;62.95;41.11;77.25;;
58251;Laerm;51449;51.676;5.812;2023-04-03T03:48:19;62.39;38.95;74.74;;
58251;Laerm;51449;51.676;5.812;2023-04-03T03:50:42;59.31;34.11;74.70;;
58251;Laerm;51449;51.676;5.812;2023-04-03T03:53:06;61.55;38.16;72.12;;
58251;Laerm;51449;51.676;5.812;2023-04-03T03:55:28;61.88;38.64;79.21;;
58251;Laerm;51449;51.676;5.812;2023-04-03T03:57:52;65.48;40.07;80.66;;
58251;Laerm;51449;51.676;5.812;2023-04-03T04:00:16;57.56;39.82;69.89;;
58251;Laerm;51449;51.676;5.812;2023-04-03T04:02:45;62.39;40.62;77.15;;
58251;Laerm;51449;51.676;5.812;2023-04-03T04:05:13;65.81;43.82;82.03;;
58251;Laerm;51449;51.676;5.812;2023-04-03T04:07:36;69.24;42.95;84.33;;
58251;Laerm;51449;51.676;5.812;2023-04-03T04:09:58;69.53;45.63;84.71;;
58251;Laerm;51449;51.676;5.812;2023-04-03T04:12:21;68.42;43.76;85.19;;
58251;Laerm;51449;51.676;5.812;2023-04-03T04:14:46;66.97;45.75;80.79;;
58251;Laerm;51449;51.676;5.812;2023-04-03T04:17:10;65.73;46.01;81.19;;
58251;Laerm;51449;51.676;5.812;2023-04-03T04:19:32;67.27;48.90;77.15;;
58251;Laerm;51449;51.676;5.812;2023-04-03T04:21:55;68.00;48.89;80.55;;
58251;Laerm;51449;51.676;5.812;2023-04-03T04:24:18;66.25;47.35;78.27;;
58251;Laerm;51449;51.676;5.812;2023-04-03T04:26:45;67.07;47.77;78.49;;
58251;Laerm;51449;51.676;5.812;2023-04-03T04:29:10;67.23;46.58;76.94;;
58251;Laerm;51449;51.676;5.812;2023-04-03T04:31:33;65.82;47.51;77.42;;
58251;Laerm;51449;51.676;5.812;2023-04-03T04:33:55;65.56;47.23;81.90;;
58251;Laerm;51449;51.676;5.812;2023-04-03T04:36:18;67.44;49.55;78.60;;
58251;Laerm;51449;51.676;5.812;2023-04-03T04:38:41;66.46;48.54;75.31;;
58251;Laerm;51449;51.676;5.812;2023-04-03T04:41:04;65.88;48.42;77.16;;
58251;Laerm;51449;51.676;5.812;2023-04-03T04:43:26;65.91;44.68;78.47;;
58251;Laerm;51449;51.676;5.812;2023-04-03T04:46:03;66.37;45.92;78.77;;
58251;Laerm;51449;51.676;5.812;2023-04-03T04:48:30;66.23;46.55;75.11;;
58251;Laerm;51449;51.676;5.812;2023-04-03T04:50:54;67.26;48.04;79.07;;
58251;Laerm;51449;51.676;5.812;2023-04-03T04:53:17;67.28;51.03;78.86;;
58251;Laerm;51449;51.676;5.812;2023-04-03T04:55:39;65.64;49.95;79.25;;
58251;Laerm;51449;51.676;5.812;2023-04-03T04:58:01;64.99;45.37;76.07;;
58251;Laerm;51449;51.676;5.812;2023-04-03T05:00:24;65.53;47.51;75.37;;
58251;Laerm;51449;51.676;5.812;2023-04-03T05:02:47;66.06;46.48;76.53;;
58251;Laerm;51449;51.676;5.812;2023-04-03T05:05:10;65.17;46.32;76.29;;
58251;Laerm;51449;51.676;5.812;2023-04-03T05:07:33;66.69;46.74;76.34;;
58251;Laerm;51449;51.676;5.812;2023-04-03T05:09:58;67.13;46.36;77.52;;
58251;Laerm;51449;51.676;5.812;2023-04-03T05:12:21;65.40;46.07;75.20;;
58251;Laerm;51449;51.676;5.812;2023-04-03T05:14:50;64.15;43.66;73.01;;
58251;Laerm;51449;51.676;5.812;2023-04-03T05:17:13;67.91;44.93;76.53;;
58251;Laerm;51449;51.676;5.812;2023-04-03T05:19:44;67.85;49.36;77.51;;
58251;Laerm;51449;51.676;5.812;2023-04-03T05:22:07;67.17;51.21;76.69;;
58251;Laerm;51449;51.676;5.812;2023-04-03T05:24:30;65.72;46.32;74.41;;
58251;Laerm;51449;51.676;5.812;2023-04-03T05:26:53;65.25;52.17;71.76;;
58251;Laerm;51449;51.676;5.812;2023-04-03T05:29:15;66.91;47.51;75.31;;
58251;Laerm;51449;51.676;5.812;2023-04-03T05:31:40;67.33;45.86;78.25;;
58251;Laerm;51449;51.676;5.812;2023-04-03T05:34:05;66.70;46.60;80.09;;
58251;Laerm;51449;51.676;5.812;2023-04-03T05:36:30;65.99;44.69;75.80;;
58251;Laerm;51449;51.676;5.812;2023-04-03T05:38:56;65.52;44.81;74.75;;
58251;Laerm;51449;51.676;5.812;2023-04-03T05:41:19;68.00;47.18;91.66;;
58251;Laerm;51449;51.676;5.812;2023-04-03T05:43:43;67.16;52.28;73.82;;
58251;Laerm;51449;51.676;5.812;2023-04-03T05:46:14;67.74;47.00;74.72;;
58251;Laerm;51449;51.676;5.812;2023-04-03T05:48:39;66.81;50.05;75.31;;
58251;Laerm;51449;51.676;5.812;2023-04-03T05:51:04;68.34;48.14;77.31;;
58251;Laerm;51449;51.676;5.812;2023-04-03T05:53:33;66.04;50.01;75.59;;
58251;Laerm;51449;51.676;5.812;2023-04-03T05:55:58;68.58;52.69;83.93;;
58251;Laerm;51449;51.676;5.812;2023-04-03T05:58:21;66.28;48.30;81.83;;
58251;Laerm;51449;51.676;5.812;2023-04-03T06:00:45;61.79;43.65;71.66;;
58251;Laerm;51449;51.676;5.812;2023-04-03T06:03:07;66.91;49.48;83.38;;
58251;Laerm;51449;51.676;5.812;2023-04-03T06:05:29;68.61;53.13;74.33;;
58251;Laerm;51449;51.676;5.812;2023-04-03T06:07:52;68.56;49.16;88.99;;
58251;Laerm;51449;51.676;5.812;2023-04-03T06:10:14;66.21;46.28;77.20;;
58251;Laerm;51449;51.676;5.812;2023-04-03T06:12:36;65.23;45.05;77.18;;
58251;Laerm;51449;51.676;5.812;2023-04-03T06:14:58;66.31;48.41;77.89;;
58251;Laerm;51449;51.676;5.812;2023-04-03T06:17:20;65.04;42.71;76.05;;
58251;Laerm;51449;51.676;5.812;2023-04-03T06:19:42;67.23;50.35;78.61;;
58251;Laerm;51449;51.676;5.812;2023-04-03T06:22:04;66.24;44.99;86.25;;
58251;Laerm;51449;51.676;5.812;2023-04-03T06:24:27;66.03;46.83;84.14;;
58251;Laerm;51449;51.676;5.812;2023-04-03T06:26:48;65.73;50.36;75.14;;
58251;Laerm;51449;51.676;5.812;2023-04-03T06:29:12;62.75;44.01;81.32;;
58251;Laerm;51449;51.676;5.812;2023-04-03T06:31:34;63.95;42.47;75.53;;
58251;Laerm;51449;51.676;5.812;2023-04-03T06:33:58;67.43;46.15;81.31;;
58251;Laerm;51449;51.676;5.812;2023-04-03T06:36:20;66.86;46.24;79.64;;
58251;Laerm;51449;51.676;5.812;2023-04-03T06:38:42;65.43;42.94;77.73;;
58251;Laerm;51449;51.676;5.812;2023-04-03T06:41:04;65.28;47.94;75.35;;
58251;Laerm;51449;51.676;5.812;2023-04-03T06:43:26;67.18;45.14;76.65;;
58251;Laerm;51449;51.676;5.812;2023-04-03T06:45:48;65.86;48.93;77.10;;
58251;Laerm;51449;51.676;5.812;2023-04-03T06:48:10;64.30;42.81;74.47;;
58251;Laerm;51449;51.676;5.812;2023-04-03T06:50:33;65.98;45.47;77.06;;
58251;Laerm;51449;51.676;5.812;2023-04-03T06:52:54;66.49;44.58;79.09;;
58251;Laerm;51449;51.676;5.812;2023-04-03T06:55:16;64.87;43.25;78.44;;
58251;Laerm;51449;51.676;5.812;2023-04-03T06:57:38;64.19;43.75;77.65;;
58251;Laerm;51449;51.676;5.812;2023-04-03T07:00:00;66.16;43.34;82.15;;
58251;Laerm;51449;51.676;5.812;2023-04-03T07:02:22;67.22;41.74;86.52;;
58251;Laerm;51449;51.676;5.812;2023-04-03T07:04:44;65.65;44.53;80.65;;
58251;Laerm;51449;51.676;5.812;2023-04-03T07:07:06;65.11;46.55;75.66;;
58251;Laerm;51449;51.676;5.812;2023-04-03T07:09:29;65.82;46.94;76.15;;
58251;Laerm;51449;51.676;5.812;2023-04-03T07:11:52;65.28;44.16;76.68;;
58251;Laerm;51449;51.676;5.812;2023-04-03T07:14:13;65.08;44.74;74.36;;
58251;Laerm;51449;51.676;5.812;2023-04-03T07:16:36;65.36;46.17;76.37;;
58251;Laerm;51449;51.676;5.812;2023-04-03T07:19:02;61.60;39.90;74.10;;
58251;Laerm;51449;51.676;5.812;2023-04-03T07:21:24;63.28;44.26;74.39;;
58251;Laerm;51449;51.676;5.812;2023-04-03T07:23:46;65.82;42.48;81.38;;
58251;Laerm;51449;51.676;5.812;2023-04-03T07:26:13;63.57;46.11;75.08;;
58251;Laerm;51449;51.676;5.812;2023-04-03T07:28:35;64.16;44.11;75.08;;
58251;Laerm;51449;51.676;5.812;2023-04-03T07:31:05;65.81;45.50;74.87;;
58251;Laerm;51449;51.676;5.812;2023-04-03T07:33:30;64.83;40.05;77.66;;
58251;Laerm;51449;51.676;5.812;2023-04-03T07:35:52;66.16;41.20;81.15;;
58251;Laerm;51449;51.676;5.812;2023-04-03T07:38:14;63.87;41.52;78.22;;
58251;Laerm;51449;51.676;5.812;2023-04-03T07:40:38;63.33;44.18;74.72;;
58251;Laerm;51449;51.676;5.812;2023-04-03T07:43:00;63.79;43.58;76.35;;
58251;Laerm;51449;51.676;5.812;2023-04-03T07:45:22;63.25;45.23;73.98;;
58251;Laerm;51449;51.676;5.812;2023-04-03T07:47:44;62.51;40.64;76.05;;
58251;Laerm;51449;51.676;5.812;2023-04-03T07:50:07;62.73;39.50;72.77;;
58251;Laerm;51449;51.676;5.812;2023-04-03T07:52:29;61.30;38.70;73.60;;
58251;Laerm;51449;51.676;5.812;2023-04-03T07:54:51;67.57;53.66;76.62;;
58251;Laerm;51449;51.676;5.812;2023-04-03T07:57:13;81.08;42.18;104.45;;
58251;Laerm;51449;51.676;5.812;2023-04-03T07:59:35;64.00;42.95;76.78;;
58251;Laerm;51449;51.676;5.812;2023-04-03T08:01:57;64.91;39.58;75.57;;
58251;Laerm;51449;51.676;5.812;2023-04-03T08:04:18;62.40;41.66;73.71;;
58251;Laerm;51449;51.676;5.812;2023-04-03T08:06:40;55.87;38.17;66.69;;
58251;Laerm;51449;51.676;5.812;2023-04-03T08:09:07;66.37;45.38;80.43;;
58251;Laerm;51449;51.676;5.812;2023-04-03T08:11:29;66.03;41.89;76.57;;
58251;Laerm;51449;51.676;5.812;2023-04-03T08:13:53;66.65;46.68;82.98;;
58251;Laerm;51449;51.676;5.812;2023-04-03T08:16:22;65.15;42.93;78.68;;
58251;Laerm;51449;51.676;5.812;2023-04-03T08:18:45;65.81;45.70;79.78;;
58251;Laerm;51449;51.676;5.812;2023-04-03T08:21:09;67.03;41.99;80.16;;
58251;Laerm;51449;51.676;5.812;2023-04-03T08:23:32;69.77;41.97;88.05;;
58251;Laerm;51449;51.676;5.812;2023-04-03T08:25:53;74.42;57.34;88.79;;
58251;Laerm;51449;51.676;5.812;2023-04-03T08:28:15;61.46;48.09;75.20;;
58251;Laerm;51449;51.676;5.812;2023-04-03T08:30:41;70.64;61.53;83.85;;
58251;Laerm;51449;51.676;5.812;2023-04-03T08:33:04;66.07;52.60;76.12;;
58251;Laerm;51449;51.676;5.812;2023-04-03T08:35:25;66.69;53.94;81.96;;
58251;Laerm;51449;51.676;5.812;2023-04-03T08:37:47;78.30;56.16;100.38;;
58251;Laerm;51449;51.676;5.812;2023-04-03T08:40:15;64.61;40.23;81.99;;
58251;Laerm;51449;51.676;5.812;2023-04-03T08:43:18;61.25;41.95;74.47;;
58251;Laerm;51449;51.676;5.812;2023-04-03T08:45:55;65.90;44.89;73.92;;
58251;Laerm;51449;51.676;5.812;2023-04-03T08:48:27;64.32;41.13;76.34;;
58251;Laerm;51449;51.676;5.812;2023-04-03T08:50:56;63.87;41.16;82.47;;
58251;Laerm;51449;51.676;5.812;2023-04-03T08:53:25;67.64;43.64;80.80;;
58251;Laerm;51449;51.676;5.812;2023-04-03T08:55:51;64.11;45.91;77.60;;
58251;Laerm;51449;51.676;5.812;2023-04-03T08:58:20;63.99;45.28;81.41;;
58251;Laerm;51449;51.676;5.812;2023-04-03T09:01:02;66.46;46.29;83.24;;
58251;Laerm;51449;51.676;5.812;2023-04-03T09:03:31;68.67;51.17;82.83;;
58251;Laerm;51449;51.676;5.812;2023-04-03T09:08:33;63.60;43.27;75.59;;
58251;Laerm;51449;51.676;5.812;2023-04-03T09:11:24;59.42;42.35;76.11;;
58251;Laerm;51449;51.676;5.812;2023-04-03T09:13:57;63.63;39.50;72.38;;
58251;Laerm;51449;51.676;5.812;2023-04-03T09:16:53;65.00;40.24;77.28;;
58251;Laerm;51449;51.676;5.812;2023-04-03T09:21:56;62.04;42.24;75.85;;
58251;Laerm;51449;51.676;5.812;2023-04-03T09:24:22;65.45;44.59;78.64;;
58251;Laerm;51449;51.676;5.812;2023-04-03T09:26:53;63.45;43.77;82.38;;
58251;Laerm;51449;51.676;5.812;2023-04-03T09:29:21;68.37;45.73;93.11;;
58251;Laerm;51449;51.676;5.812;2023-04-03T09:31:45;65.49;52.43;78.76;;
58251;Laerm;51449;51.676;5.812;2023-04-03T09:34:24;62.89;42.71;80.24;;
58251;Laerm;51449;51.676;5.812;2023-04-03T09:36:51;64.03;42.80;75.73;;
58251;Laerm;51449;51.676;5.812;2023-04-03T09:41:38;64.78;40.74;78.64;;
58251;Laerm;51449;51.676;5.812;2023-04-03T09:44:01;62.63;43.95;81.65;;
58251;Laerm;51449;51.676;5.812;2023-04-03T09:46:33;64.19;45.05;84.97;;
58251;Laerm;51449;51.676;5.812;2023-04-03T09:49:05;68.22;41.62;87.35;;
58251;Laerm;51449;51.676;5.812;2023-04-03T09:51:31;63.64;42.53;76.77;;
58251;Laerm;51449;51.676;5.812;2023-04-03T09:53:53;68.64;42.68;96.49;;
58251;Laerm;51449;51.676;5.812;2023-04-03T09:58:40;63.98;44.65;73.87;;
58251;Laerm;51449;51.676;5.812;2023-04-03T10:01:27;78.89;44.85;89.28;;
58251;Laerm;51449;51.676;5.812;2023-04-03T10:04:13;71.28;44.03;88.14;;
58251;Laerm;51449;51.676;5.812;2023-04-03T10:06:46;64.89;48.67;74.96;;
58251;Laerm;51449;51.676;5.812;2023-04-03T10:09:34;62.53;48.44;83.77;;
58251;Laerm;51449;51.676;5.812;2023-04-03T10:12:05;64.76;49.06;80.96;;
58251;Laerm;51449;51.676;5.812;2023-04-03T10:14:32;63.86;48.99;77.08;;
58251;Laerm;51449;51.676;5.812;2023-04-03T10:27:53;66.00;44.08;78.12;;
58251;Laerm;51449;51.676;5.812;2023-04-03T10:30:48;65.32;42.12;80.43;;
58251;Laerm;51449;51.676;5.812;2023-04-03T10:36:19;65.33;45.08;74.96;;
58251;Laerm;51449;51.676;5.812;2023-04-03T10:39:12;64.33;45.19;78.90;;
58251;Laerm;51449;51.676;5.812;2023-04-03T10:42:03;64.88;42.60;75.94;;
58251;Laerm;51449;51.676;5.812;2023-04-03T10:47:22;64.39;41.80;76.55;;
58251;Laerm;51449;51.676;5.812;2023-04-03T10:50:22;65.95;40.20;80.51;;
58251;Laerm;51449;51.676;5.812;2023-04-03T10:53:27;65.41;44.38;78.11;;
58251;Laerm;51449;51.676;5.812;2023-04-03T10:56:13;65.15;45.10;80.24;;
58251;Laerm;51449;51.676;5.812;2023-04-03T10:58:45;63.25;43.30;78.28;;
58251;Laerm;51449;51.676;5.812;2023-04-03T11:01:19;65.12;44.98;80.91;;
58251;Laerm;51449;51.676;5.812;2023-04-03T11:03:50;63.55;43.27;74.89;;
58251;Laerm;51449;51.676;5.812;2023-04-03T11:06:17;64.76;44.26;76.00;;
58251;Laerm;51449;51.676;5.812;2023-04-03T11:08:49;64.08;47.01;78.42;;
58251;Laerm;51449;51.676;5.812;2023-04-03T11:11:19;66.62;43.59;79.97;;
58251;Laerm;51449;51.676;5.812;2023-04-03T11:13:50;64.41;44.50;75.19;;
58251;Laerm;51449;51.676;5.812;2023-04-03T11:16:25;63.98;42.88;75.30;;
58251;Laerm;51449;51.676;5.812;2023-04-03T11:18:52;66.01;45.19;79.44;;
58251;Laerm;51449;51.676;5.812;2023-04-03T11:21:29;62.31;45.39;77.38;;
58251;Laerm;51449;51.676;5.812;2023-04-03T11:23:57;64.11;45.83;78.72;;
58251;Laerm;51449;51.676;5.812;2023-04-03T11:26:27;63.09;43.31;72.68;;
58251;Laerm;51449;51.676;5.812;2023-04-03T11:29:03;63.83;43.77;85.28;;
58251;Laerm;51449;51.676;5.812;2023-04-03T11:34:40;65.15;42.21;79.52;;
58251;Laerm;51449;51.676;5.812;2023-04-03T11:37:27;63.24;41.80;76.79;;
58251;Laerm;51449;51.676;5.812;2023-04-03T11:39:58;62.78;43.25;73.90;;
58251;Laerm;51449;51.676;5.812;2023-04-03T11:42:40;65.04;50.54;79.15;;
58251;Laerm;51449;51.676;5.812;2023-04-03T11:45:33;61.94;36.77;77.83;;
58251;Laerm;51449;51.676;5.812;2023-04-03T11:48:41;64.58;40.95;81.91;;
58251;Laerm;51449;51.676;5.812;2023-04-03T11:50:49;62.87;47.97;74.28;;
58251;Laerm;51449;51.676;5.812;2023-04-03T11:53:27;63.87;44.90;76.20;;
58251;Laerm;51449;51.676;5.812;2023-04-03T11:58:23;63.77;43.72;75.77;;
58251;Laerm;51449;51.676;5.812;2023-04-03T12:00:53;62.64;42.69;82.74;;
58251;Laerm;51449;51.676;5.812;2023-04-03T12:05:47;62.88;42.04;75.24;;
58251;Laerm;51449;51.676;5.812;2023-04-03T12:11:13;65.11;40.99;75.49;;
58251;Laerm;51449;51.676;5.812;2023-04-03T12:24:22;67.08;46.69;79.53;;
58251;Laerm;51449;51.676;5.812;2023-04-03T12:45:25;60.22;43.33;73.49;;
58251;Laerm;51449;51.676;5.812;2023-04-03T12:47:54;65.02;44.53;75.68;;
58251;Laerm;51449;51.676;5.812;2023-04-03T12:50:45;64.91;43.60;77.05;;
58251;Laerm;51449;51.676;5.812;2023-04-03T12:53:37;79.50;45.70;102.71;;
58251;Laerm;51449;51.676;5.812;2023-04-03T12:56:28;63.82;41.68;76.99;;
58251;Laerm;51449;51.676;5.812;2023-04-03T12:59:12;65.43;45.95;76.24;;
58251;Laerm;51449;51.676;5.812;2023-04-03T13:01:34;64.98;43.03;76.01;;
58251;Laerm;51449;51.676;5.812;2023-04-03T13:03:58;63.00;46.05;83.40;;
58251;Laerm;51449;51.676;5.812;2023-04-03T13:06:36;66.70;45.77;77.21;;
58251;Laerm;51449;51.676;5.812;2023-04-03T13:09:00;62.58;40.51;71.91;;
58251;Laerm;51449;51.676;5.812;2023-04-03T13:11:25;65.28;42.79;79.58;;
58251;Laerm;51449;51.676;5.812;2023-04-03T13:14:13;65.04;44.99;74.98;;
58251;Laerm;51449;51.676;5.812;2023-04-03T13:16:36;64.37;41.10;81.06;;
58251;Laerm;51449;51.676;5.812;2023-04-03T13:19:02;65.42;45.29;77.64;;
58251;Laerm;51449;51.676;5.812;2023-04-03T13:21:31;66.62;45.19;79.62;;
58251;Laerm;51449;51.676;5.812;2023-04-03T13:23:58;67.91;46.43;91.05;;
58251;Laerm;51449;51.676;5.812;2023-04-03T13:26:35;63.93;43.33;75.31;;
58251;Laerm;51449;51.676;5.812;2023-04-03T13:29:24;64.07;41.69;75.33;;
58251;Laerm;51449;51.676;5.812;2023-04-03T13:31:55;63.21;43.12;78.87;;
58251;Laerm;51449;51.676;5.812;2023-04-03T13:34:22;64.63;39.88;75.85;;
58251;Laerm;51449;51.676;5.812;2023-04-03T13:41:38;65.10;43.72;78.32;;
58251;Laerm;51449;51.676;5.812;2023-04-03T13:46:44;63.90;45.41;75.00;;
58251;Laerm;51449;51.676;5.812;2023-04-03T13:49:30;65.41;44.51;77.51;;
58251;Laerm;51449;51.676;5.812;2023-04-03T13:51:52;78.84;50.27;106.06;;
58251;Laerm;51449;51.676;5.812;2023-04-03T13:54:39;65.06;46.48;78.70;;
58251;Laerm;51449;51.676;5.812;2023-04-03T13:57:02;63.38;46.15;81.03;;
58251;Laerm;51449;51.676;5.812;2023-04-03T13:59:31;64.00;41.59;78.10;;
58251;Laerm;51449;51.676;5.812;2023-04-03T14:04:31;66.06;44.18;79.39;;
58251;Laerm;51449;51.676;5.812;2023-04-03T14:06:55;63.88;42.88;74.25;;
58251;Laerm;51449;51.676;5.812;2023-04-03T14:09:19;67.48;54.76;79.88;;
58251;Laerm;51449;51.676;5.812;2023-04-03T14:11:42;64.21;47.96;74.47;;
58251;Laerm;51449;51.676;5.812;2023-04-03T14:14:28;62.79;43.43;72.59;;
58251;Laerm;51449;51.676;5.812;2023-04-03T14:16:58;63.92;44.85;79.82;;
58251;Laerm;51449;51.676;5.812;2023-04-03T14:19:30;66.64;44.90;75.48;;
58251;Laerm;51449;51.676;5.812;2023-04-03T14:21:54;66.30;46.87;78.96;;
58251;Laerm;51449;51.676;5.812;2023-04-03T14:24:17;65.82;47.33;75.50;;
58251;Laerm;51449;51.676;5.812;2023-04-03T14:26:40;64.82;46.52;77.50;;
58251;Laerm;51449;51.676;5.812;2023-04-03T14:29:02;65.06;40.86;75.01;;
58251;Laerm;51449;51.676;5.812;2023-04-03T14:31:24;63.11;42.16;76.66;;
58251;Laerm;51449;51.676;5.812;2023-04-03T14:33:48;65.54;45.02;74.49;;
58251;Laerm;51449;51.676;5.812;2023-04-03T14:36:28;67.22;45.94;81.67;;
58251;Laerm;51449;51.676;5.812;2023-04-03T14:38:51;65.47;51.22;76.63;;
58251;Laerm;51449;51.676;5.812;2023-04-03T14:41:18;65.51;45.58;76.26;;
58251;Laerm;51449;51.676;5.812;2023-04-03T14:43:42;65.08;46.78;73.45;;
58251;Laerm;51449;51.676;5.812;2023-04-03T14:46:19;63.37;44.79;78.14;;
58251;Laerm;51449;51.676;5.812;2023-04-03T14:48:45;66.56;45.66;79.63;;
58251;Laerm;51449;51.676;5.812;2023-04-03T14:51:11;66.62;47.13;78.73;;
58251;Laerm;51449;51.676;5.812;2023-04-03T14:53:34;63.88;40.42;78.63;;
58251;Laerm;51449;51.676;5.812;2023-04-03T14:56:00;66.03;44.24;79.74;;
58251;Laerm;51449;51.676;5.812;2023-04-03T14:58:22;66.13;46.70;75.05;;
58251;Laerm;51449;51.676;5.812;2023-04-03T15:00:45;68.36;49.93;82.73;;
58251;Laerm;51449;51.676;5.812;2023-04-03T15:03:14;65.59;48.12;81.34;;